createdAt,value
2022-08-21T00:02:20.929Z,45.32
2022-08-21T00:04:57.441Z,45.38
2022-08-21T00:07:30.183Z,45.43
2022-08-21T00:10:02.921Z,45.37
2022-08-21T00:12:35.111Z,45.55
2022-08-21T00:15:09.379Z,45.62
2022-08-21T00:17:41.612Z,45.62
2022-08-21T00:20:17.015Z,45.76
2022-08-21T00:22:49.753Z,45.77
2022-08-21T00:25:24.362Z,45.86
2022-08-21T00:27:59.011Z,45.63
2022-08-21T00:30:32.429Z,45.69
2022-08-21T00:33:05.704Z,45.86
2022-08-21T00:35:40.632Z,46.12
2022-08-21T00:38:14.283Z,46.11
2022-08-21T00:40:49.006Z,45.94
2022-08-21T00:43:24.336Z,46.22
2022-08-21T00:45:57.320Z,46.19
2022-08-21T00:48:30.548Z,46.21
2022-08-21T00:51:07.455Z,45.96
2022-08-21T00:53:42.959Z,46.44
2022-08-21T00:56:15.988Z,46.41
2022-08-21T00:58:54.812Z,46.35
2022-08-21T01:01:27.664Z,46.39
2022-08-21T01:03:59.946Z,46.51
2022-08-21T01:06:32.177Z,46.43
2022-08-21T01:09:04.459Z,46.68
2022-08-21T01:11:37.036Z,46.61
2022-08-21T01:14:13.357Z,46.64
2022-08-21T01:16:48.691Z,46.82
2022-08-21T01:19:19.788Z,46.92
2022-08-21T01:21:52.804Z,47.00
2022-08-21T01:24:25.926Z,46.98
2022-08-21T01:26:58.388Z,47.10
2022-08-21T01:29:38.267Z,47.05
2022-08-21T01:32:15.116Z,47.50
2022-08-21T01:34:50.278Z,47.12
2022-08-21T01:37:23.980Z,47.19
2022-08-21T01:39:56.263Z,47.27
2022-08-21T01:42:28.991Z,47.19
2022-08-21T01:45:01.362Z,47.32
2022-08-21T01:47:33.728Z,47.36
2022-08-21T01:50:09.541Z,47.32
2022-08-21T01:52:42.211Z,47.51
2022-08-21T01:55:17.185Z,47.37
2022-08-21T01:57:50.105Z,47.73
2022-08-21T02:00:24.957Z,47.74
2022-08-21T02:02:57.368Z,47.77
2022-08-21T02:05:29.907Z,47.71
2022-08-21T02:08:02.125Z,48.04
2022-08-21T02:10:35.871Z,48.11
2022-08-21T02:13:08.357Z,48.15
2022-08-21T02:15:46.021Z,48.37
2022-08-21T02:18:18.275Z,48.47
2022-08-21T02:20:55.694Z,48.18
2022-08-21T02:23:29.068Z,48.59
2022-08-21T02:26:03.259Z,48.66
2022-08-21T02:28:37.599Z,48.72
2022-08-21T02:31:10.523Z,49.08
2022-08-21T02:33:42.956Z,48.99
2022-08-21T02:36:15.612Z,49.03
2022-08-21T02:38:48.476Z,49.37
2022-08-21T02:41:23.043Z,49.35
2022-08-21T02:43:55.269Z,49.57
2022-08-21T02:46:27.500Z,49.58
2022-08-21T02:48:59.700Z,50.04
2022-08-21T02:51:32.030Z,50.05
2022-08-21T02:54:04.294Z,50.12
2022-08-21T02:56:36.812Z,50.32
2022-08-21T02:59:09.032Z,50.58
2022-08-21T03:01:41.208Z,50.70
2022-08-21T03:04:13.445Z,50.80
2022-08-21T03:06:45.999Z,50.78
2022-08-21T03:09:18.190Z,50.84
2022-08-21T03:11:50.390Z,51.30
2022-08-21T03:14:22.707Z,51.16
2022-08-21T03:16:54.947Z,51.26
2022-08-21T03:19:27.189Z,51.33
2022-08-21T03:21:59.344Z,51.32
2022-08-21T03:24:31.575Z,51.37
2022-08-21T03:27:04.727Z,51.82
2022-08-21T03:29:42.158Z,51.54
2022-08-21T03:32:14.476Z,51.95
2022-08-21T03:34:46.660Z,51.71
2022-08-21T03:37:19.884Z,51.65
2022-08-21T03:39:52.841Z,52.08
2022-08-21T03:42:25.145Z,51.76
2022-08-21T03:44:57.291Z,52.09
2022-08-21T03:47:31.054Z,52.01
2022-08-21T03:50:03.252Z,52.25
2022-08-21T03:52:35.460Z,52.24
2022-08-21T03:55:08.851Z,52.06
2022-08-21T03:57:41.043Z,52.00
2022-08-21T04:00:16.671Z,52.29
2022-08-21T04:02:49.953Z,52.38
2022-08-21T04:05:29.339Z,52.39
2022-08-21T04:08:03.352Z,52.48
2022-08-21T04:10:37.657Z,52.47
2022-08-21T04:13:11.063Z,52.28
2022-08-21T04:15:43.709Z,52.62
2022-08-21T04:18:16.074Z,52.41
2022-08-21T04:20:51.511Z,52.42
2022-08-21T04:23:25.075Z,52.37
2022-08-21T04:25:58.625Z,52.43
2022-08-21T04:28:31.472Z,52.65
2022-08-21T04:31:04.051Z,52.67
2022-08-21T04:33:36.328Z,52.62
2022-08-21T04:36:09.722Z,52.48
2022-08-21T04:38:44.503Z,52.71
2022-08-21T04:41:17.050Z,52.69
2022-08-21T04:43:57.518Z,52.52
2022-08-21T04:46:29.703Z,52.41
2022-08-21T04:49:01.895Z,52.44
2022-08-21T04:51:39.315Z,52.60
2022-08-21T04:54:16.834Z,52.28
2022-08-21T04:56:52.210Z,52.47
2022-08-21T04:59:24.931Z,52.40
2022-08-21T05:01:57.811Z,52.49
2022-08-21T05:04:35.072Z,52.63
2022-08-21T05:07:12.769Z,52.53
2022-08-21T05:09:45.324Z,52.46
2022-08-21T05:12:17.896Z,52.46
2022-08-21T05:14:50.476Z,52.40
2022-08-21T05:17:22.709Z,52.59
2022-08-21T05:19:55.040Z,52.61
2022-08-21T05:22:27.324Z,52.53
2022-08-21T05:25:00.848Z,52.53
2022-08-21T05:27:33.199Z,52.28
2022-08-21T05:30:08.856Z,52.67
2022-08-21T05:32:41.200Z,52.53
2022-08-21T05:35:13.530Z,52.38
2022-08-21T05:37:45.784Z,52.28
2022-08-21T05:40:22.451Z,52.18
2022-08-21T05:42:57.583Z,52.31
2022-08-21T05:45:42.865Z,51.87
2022-08-21T05:48:20.150Z,51.95
2022-08-21T05:50:51.154Z,51.80
2022-08-21T05:53:25.233Z,51.94
2022-08-21T05:55:57.397Z,51.51
2022-08-21T05:58:29.883Z,51.44
2022-08-21T06:01:03.415Z,51.79
2022-08-21T06:03:41.670Z,51.44
2022-08-21T06:06:13.952Z,51.33
2022-08-21T06:08:46.509Z,51.29
2022-08-21T06:11:20.777Z,51.15
2022-08-21T06:13:53.366Z,51.09
2022-08-21T06:16:27.731Z,51.11
2022-08-21T06:19:02.826Z,50.71
2022-08-21T06:21:35.564Z,50.64
2022-08-21T06:24:09.163Z,50.51
2022-08-21T06:26:41.371Z,50.40
2022-08-21T06:29:17.574Z,50.02
2022-08-21T06:31:51.243Z,49.98
2022-08-21T06:34:23.680Z,49.70
2022-08-21T06:36:55.993Z,49.52
2022-08-21T06:39:32.280Z,49.35
2022-08-21T06:42:05.208Z,49.10
2022-08-21T06:44:42.483Z,48.79
2022-08-21T06:47:14.643Z,48.33
2022-08-21T06:49:46.869Z,48.50
2022-08-21T06:52:19.688Z,48.07
2022-08-21T06:54:52.198Z,47.79
2022-08-21T06:57:24.379Z,47.78
2022-08-21T06:59:56.656Z,47.57
2022-08-21T07:02:29.461Z,47.39
2022-08-21T07:05:01.902Z,47.23
2022-08-21T07:07:50.984Z,46.24
2022-08-21T07:10:23.269Z,45.86
2022-08-21T07:13:00.124Z,45.47
2022-08-21T07:15:34.024Z,45.21
2022-08-21T07:18:06.798Z,44.85
2022-08-21T07:20:39.055Z,44.69
2022-08-21T07:23:14.622Z,44.73
2022-08-21T07:25:46.948Z,44.53
2022-08-21T07:28:19.099Z,44.21
2022-08-21T07:30:55.859Z,43.55
2022-08-21T07:33:30.911Z,42.98
2022-08-21T07:36:01.543Z,42.93
2022-08-21T07:38:33.754Z,43.01
2022-08-21T07:41:12.961Z,43.16
2022-08-21T07:43:46.503Z,43.00
2022-08-21T07:46:19.423Z,42.75
2022-08-21T07:48:52.027Z,42.28
2022-08-21T07:51:31.217Z,41.81
2022-08-21T07:54:04.187Z,41.35
2022-08-21T07:56:37.229Z,41.43
2022-08-21T07:59:09.827Z,40.63
2022-08-21T08:01:42.502Z,40.74
2022-08-21T08:04:16.093Z,40.00
2022-08-21T08:06:48.296Z,39.06
2022-08-21T08:09:20.843Z,39.01
2022-08-21T08:11:53.019Z,38.38
2022-08-21T08:14:31.350Z,38.44
2022-08-21T08:17:04.115Z,38.62
2022-08-21T08:19:36.375Z,38.10
2022-08-21T08:22:20.330Z,37.86
2022-08-21T08:24:53.287Z,37.93
2022-08-21T08:27:25.798Z,37.28
2022-08-21T08:29:57.942Z,37.03
2022-08-21T08:32:30.169Z,36.76
2022-08-21T08:35:02.352Z,36.34
2022-08-21T08:37:38.745Z,36.35
2022-08-21T08:40:20.528Z,36.06
2022-08-21T08:42:52.936Z,35.27
2022-08-21T08:45:27.388Z,35.06
2022-08-21T08:48:03.464Z,35.16
2022-08-21T08:50:45.818Z,34.83
2022-08-21T08:53:23.221Z,34.63
2022-08-21T08:55:56.966Z,34.39
2022-08-21T08:58:32.590Z,34.12
2022-08-21T09:01:07.650Z,33.93
2022-08-21T09:03:42.084Z,33.87
2022-08-21T09:06:25.728Z,33.38
2022-08-21T09:09:12.640Z,33.05
2022-08-21T09:11:54.624Z,33.25
2022-08-21T09:14:36.543Z,33.53
2022-08-21T09:17:19.791Z,33.41
2022-08-21T09:20:05.548Z,32.35
2022-08-21T09:22:50.777Z,31.93
2022-08-21T09:25:23.990Z,32.00
2022-08-21T09:27:57.155Z,32.17
2022-08-21T09:30:32.349Z,32.27
2022-08-21T09:33:04.654Z,31.76
2022-08-21T09:35:38.426Z,31.88
2022-08-21T09:38:11.496Z,31.66
2022-08-21T09:40:46.210Z,31.56
2022-08-21T09:43:24.042Z,31.18
2022-08-21T09:46:11.139Z,31.02
2022-08-21T09:48:48.243Z,31.05
2022-08-21T09:51:23.107Z,31.12
2022-08-21T09:53:55.323Z,30.61
2022-08-21T09:56:51.959Z,30.23
2022-08-21T09:59:36.903Z,30.15
2022-08-21T10:02:28.153Z,30.83
2022-08-21T10:05:03.135Z,30.67
2022-08-21T10:07:39.668Z,30.52
2022-08-21T10:10:20.835Z,30.62
2022-08-21T10:13:06.511Z,30.63
2022-08-21T10:15:49.707Z,30.82
2022-08-21T10:18:29.370Z,30.92
2022-08-21T10:21:12.129Z,30.84
2022-08-21T10:23:56.976Z,30.94
2022-08-21T10:26:44.923Z,31.11
2022-08-21T10:29:32.695Z,31.38
2022-08-21T10:32:26.114Z,31.36
2022-08-21T10:35:08.699Z,31.48
2022-08-21T10:37:51.312Z,31.50
2022-08-21T10:40:32.010Z,31.59
2022-08-21T10:43:23.503Z,31.76
2022-08-21T10:46:05.202Z,31.86
2022-08-21T10:48:47.573Z,31.83
2022-08-21T10:51:30.224Z,31.77
2022-08-21T10:54:09.859Z,31.44
2022-08-21T10:56:45.615Z,31.32
2022-08-21T10:59:29.656Z,31.18
2022-08-21T11:02:12.247Z,31.20
2022-08-21T11:04:57.050Z,31.38
2022-08-21T11:07:34.692Z,31.34
2022-08-21T11:10:13.060Z,31.34
2022-08-21T11:12:51.666Z,31.38
2022-08-21T11:15:37.558Z,31.19
2022-08-21T11:18:24.540Z,31.23
2022-08-21T11:21:05.191Z,31.38
2022-08-21T11:23:47.215Z,31.38
2022-08-21T11:26:26.063Z,31.37
2022-08-21T11:29:03.154Z,31.36
2022-08-21T11:31:54.778Z,31.35
2022-08-21T11:34:42.518Z,31.16
2022-08-21T11:37:25.408Z,31.08
2022-08-21T11:40:06.547Z,31.32
2022-08-21T11:42:47.675Z,31.28
2022-08-21T11:45:29.245Z,31.56
2022-08-21T11:48:16.072Z,31.37
2022-08-21T11:50:50.899Z,31.19
2022-08-21T11:53:29.125Z,31.13
2022-08-21T11:56:08.372Z,30.95
2022-08-21T11:58:45.859Z,31.13
2022-08-21T12:01:21.536Z,30.97
2022-08-21T12:04:02.448Z,31.15
2022-08-21T12:06:38.006Z,31.12
2022-08-21T12:09:11.792Z,30.98
2022-08-21T12:11:53.274Z,31.08
2022-08-21T12:14:25.451Z,31.11
2022-08-21T12:17:08.805Z,31.44
2022-08-21T12:19:44.560Z,31.03
2022-08-21T12:22:17.325Z,31.31
2022-08-21T12:24:52.863Z,31.22
2022-08-21T12:27:31.104Z,31.43
2022-08-21T12:30:08.186Z,31.57
2022-08-21T12:32:56.672Z,31.77
2022-08-21T12:35:35.152Z,31.64
2022-08-21T12:38:17.948Z,32.04
2022-08-21T12:40:54.672Z,32.07
2022-08-21T12:43:32.721Z,32.17
2022-08-21T12:46:05.610Z,32.33
2022-08-21T12:48:44.997Z,32.29
2022-08-21T12:51:20.995Z,32.26
2022-08-21T12:53:55.803Z,32.45
2022-08-21T12:56:30.175Z,32.51
2022-08-21T12:59:06.433Z,32.37
2022-08-21T13:01:42.192Z,32.22
2022-08-21T13:04:21.411Z,32.48
2022-08-21T13:07:01.163Z,32.54
2022-08-21T13:09:35.307Z,32.57
2022-08-21T13:12:11.341Z,32.19
2022-08-21T13:14:47.698Z,32.18
2022-08-21T13:17:25.942Z,32.47
2022-08-21T13:20:07.396Z,32.55
2022-08-21T13:22:45.135Z,32.37
2022-08-21T13:25:20.184Z,32.53
2022-08-21T13:28:07.472Z,32.42
2022-08-21T13:30:44.508Z,32.49
2022-08-21T13:33:20.430Z,32.26
2022-08-21T13:36:04.054Z,32.54
2022-08-21T13:38:39.504Z,32.55
2022-08-21T13:41:23.004Z,32.34
2022-08-21T13:44:01.983Z,32.22
2022-08-21T13:46:36.672Z,32.48
2022-08-21T13:49:11.127Z,32.43
2022-08-21T13:51:44.031Z,32.24
2022-08-21T13:54:24.462Z,32.41
2022-08-21T13:56:57.566Z,32.34
2022-08-21T13:59:34.523Z,32.84
2022-08-21T14:02:15.221Z,33.39
2022-08-21T14:04:57.675Z,33.93
2022-08-21T14:07:33.525Z,34.25
2022-08-21T14:10:09.764Z,34.61
2022-08-21T14:12:45.933Z,35.03
2022-08-21T14:15:20.681Z,35.59
2022-08-21T14:17:53.330Z,36.18
2022-08-21T14:20:35.263Z,36.32
2022-08-21T14:23:07.687Z,37.07
2022-08-21T14:25:45.074Z,37.46
2022-08-21T14:28:28.087Z,37.93
2022-08-21T14:31:01.203Z,38.11
2022-08-21T14:33:37.560Z,38.55
2022-08-21T14:36:10.380Z,38.97
2022-08-21T14:38:43.544Z,39.28
2022-08-21T14:41:22.413Z,39.58
2022-08-21T14:44:06.058Z,39.94
2022-08-21T14:46:54.308Z,40.57
2022-08-21T14:49:30.601Z,41.10
2022-08-21T14:52:02.847Z,41.44
2022-08-21T14:54:35.524Z,42.12
2022-08-21T14:57:13.167Z,43.24
2022-08-21T14:59:45.442Z,44.27
2022-08-21T15:02:17.727Z,44.61
2022-08-21T15:04:49.962Z,45.34
2022-08-21T15:07:22.203Z,45.30
2022-08-21T15:09:54.641Z,45.39
2022-08-21T15:12:27.630Z,45.80
2022-08-21T15:15:00.268Z,46.00
2022-08-21T15:17:32.583Z,46.08
2022-08-21T15:20:05.933Z,46.41
2022-08-21T15:22:38.253Z,46.36
2022-08-21T15:25:11.876Z,46.71
2022-08-21T15:27:44.195Z,47.17
2022-08-21T15:30:17.176Z,47.16
2022-08-21T15:32:49.580Z,47.64
2022-08-21T15:35:22.183Z,47.54
2022-08-21T15:37:54.362Z,47.74
2022-08-21T15:40:26.746Z,47.74
2022-08-21T15:43:02.359Z,48.21
2022-08-21T15:45:35.105Z,48.41
2022-08-21T15:48:08.210Z,48.63
2022-08-21T15:50:40.455Z,48.78
2022-08-21T15:53:12.687Z,49.29
2022-08-21T15:55:45.035Z,49.34
2022-08-21T15:58:20.984Z,49.65
2022-08-21T16:00:53.183Z,49.63
2022-08-21T16:03:27.153Z,49.79
2022-08-21T16:05:59.379Z,50.02
2022-08-21T16:08:31.566Z,50.16
2022-08-21T16:11:04.275Z,50.22
2022-08-21T16:13:43.800Z,49.92
2022-08-21T16:16:25.375Z,50.00
2022-08-21T16:18:57.505Z,49.74
2022-08-21T16:21:29.757Z,50.15
2022-08-21T16:24:02.271Z,49.88
2022-08-21T16:26:35.133Z,49.76
2022-08-21T16:29:08.805Z,50.04
2022-08-21T16:31:41.188Z,49.90
2022-08-21T16:34:17.615Z,49.82
2022-08-21T16:36:50.103Z,49.95
2022-08-21T16:39:22.612Z,49.80
2022-08-21T16:41:55.435Z,49.98
2022-08-21T16:44:30.082Z,49.90
2022-08-21T16:47:02.759Z,49.85
2022-08-21T16:49:34.951Z,49.82
2022-08-21T16:52:08.046Z,49.93
2022-08-21T16:54:43.496Z,49.81
2022-08-21T16:57:15.724Z,49.80
2022-08-21T16:59:48.227Z,49.97
2022-08-21T17:02:31.178Z,49.96
2022-08-21T17:05:03.733Z,49.93
2022-08-21T17:07:37.159Z,49.96
2022-08-21T17:10:12.384Z,49.99
2022-08-21T17:12:47.189Z,50.05
2022-08-21T17:15:26.820Z,50.25
2022-08-21T17:17:59.446Z,49.88
2022-08-21T17:20:31.929Z,49.98
2022-08-21T17:23:04.331Z,50.03
2022-08-21T17:25:39.940Z,50.20
2022-08-21T17:28:15.309Z,50.28
2022-08-21T17:30:48.132Z,50.26
2022-08-21T17:33:21.677Z,49.95
2022-08-21T17:35:55.132Z,50.07
2022-08-21T17:38:27.955Z,50.24
2022-08-21T17:41:00.219Z,50.07
2022-08-21T17:43:32.535Z,49.84
2022-08-21T17:46:05.264Z,50.08
2022-08-21T17:48:37.455Z,50.17
2022-08-21T17:51:11.393Z,50.12
2022-08-21T17:53:45.116Z,50.15
2022-08-21T17:56:19.904Z,50.13
2022-08-21T17:58:53.310Z,50.07
2022-08-21T18:01:26.852Z,49.87
2022-08-21T18:03:59.111Z,49.88
2022-08-21T18:06:31.709Z,50.05
2022-08-21T18:09:05.237Z,50.02
2022-08-21T18:11:38.755Z,50.08
2022-08-21T18:14:11.738Z,50.03
2022-08-21T18:16:44.240Z,50.02
2022-08-21T18:19:21.428Z,49.97
2022-08-21T18:21:54.434Z,49.88
2022-08-21T18:24:27.283Z,50.00
2022-08-21T18:26:59.607Z,49.88
2022-08-21T18:29:32.416Z,49.76
2022-08-21T18:32:06.120Z,49.84
2022-08-21T18:35:02.770Z,49.74
2022-08-21T18:37:35.136Z,49.71
2022-08-21T18:40:09.259Z,49.80
2022-08-21T18:42:55.042Z,49.65
2022-08-21T18:45:28.782Z,49.77
2022-08-21T18:48:03.708Z,49.98
2022-08-21T18:50:38.182Z,50.01
2022-08-21T18:53:18.210Z,50.10
2022-08-21T18:55:57.889Z,50.38
2022-08-21T18:58:37.638Z,50.27
2022-08-21T19:01:09.836Z,50.59
2022-08-21T19:03:42.726Z,50.60
2022-08-21T19:06:15.092Z,50.69
2022-08-21T19:08:48.674Z,50.79
2022-08-21T19:14:17.275Z,51.07
2022-08-21T19:16:50.284Z,51.22
2022-08-21T19:19:22.760Z,51.43
2022-08-21T19:21:54.938Z,51.60
2022-08-21T19:24:29.432Z,51.46
2022-08-21T19:27:01.656Z,51.63
2022-08-21T19:29:34.566Z,51.66
2022-08-21T19:32:09.172Z,52.06
2022-08-21T19:34:42.780Z,51.93
2022-08-21T19:37:16.739Z,52.01
2022-08-21T19:39:50.056Z,52.35
2022-08-21T19:42:28.643Z,52.51
2022-08-21T19:45:01.517Z,52.63
2022-08-21T19:47:36.547Z,52.56
2022-08-21T19:50:17.810Z,52.71
2022-08-21T19:52:52.784Z,52.82
2022-08-21T19:55:25.975Z,53.09
2022-08-21T19:57:58.372Z,53.21
2022-08-21T20:00:30.871Z,53.42
2022-08-21T20:03:04.509Z,53.45
2022-08-21T20:05:40.153Z,53.73
2022-08-21T20:08:20.522Z,53.74
2022-08-21T20:10:56.359Z,54.11
2022-08-21T20:13:33.734Z,54.13
2022-08-21T20:16:09.980Z,54.09
2022-08-21T20:18:42.560Z,54.31
2022-08-21T20:21:16.191Z,54.34
2022-08-21T20:23:49.289Z,54.34
2022-08-21T20:26:23.019Z,54.42
2022-08-21T20:28:55.874Z,54.56
2022-08-21T20:31:28.706Z,54.59
2022-08-21T20:34:00.899Z,54.89
2022-08-21T20:36:33.404Z,54.95
2022-08-21T20:39:11.226Z,54.92
2022-08-21T20:41:44.777Z,55.03
2022-08-21T20:44:20.327Z,55.01
2022-08-21T20:46:52.583Z,55.13
2022-08-21T20:49:32.043Z,55.15
2022-08-21T20:52:08.248Z,55.18
2022-08-21T20:54:50.023Z,55.08
2022-08-21T20:57:29.799Z,55.25
2022-08-21T21:00:07.875Z,55.15
2022-08-21T21:02:54.928Z,55.13
2022-08-21T21:05:29.925Z,55.25
2022-08-21T21:08:06.043Z,55.23
2022-08-21T21:10:48.413Z,55.19
2022-08-21T21:13:27.481Z,55.37
2022-08-21T21:16:04.603Z,55.60
2022-08-21T21:18:41.538Z,55.68
2022-08-21T21:21:21.906Z,55.50
2022-08-21T21:24:05.907Z,55.54
2022-08-21T21:26:48.636Z,55.62
2022-08-21T21:29:25.839Z,55.59
2022-08-21T21:32:02.276Z,55.65
2022-08-21T21:34:38.867Z,55.73
2022-08-21T21:37:23.100Z,55.67
2022-08-21T21:40:10.717Z,55.87
2022-08-21T21:42:52.682Z,55.90
2022-08-21T21:45:30.971Z,56.04
2022-08-21T21:51:26.036Z,56.36
2022-08-21T21:54:11.384Z,56.52
2022-08-21T21:56:55.466Z,56.25
2022-08-21T21:59:43.766Z,56.50
2022-08-21T22:02:22.311Z,56.60
2022-08-21T22:05:04.667Z,56.66
2022-08-21T22:07:44.993Z,56.54
2022-08-21T22:10:30.653Z,57.03
2022-08-21T22:16:18.928Z,57.36
2022-08-21T22:18:58.427Z,57.16
2022-08-21T22:21:34.972Z,57.45
2022-08-21T22:24:13.932Z,57.43
2022-08-21T22:26:52.392Z,57.50
2022-08-21T22:29:25.905Z,57.85
2022-08-21T22:32:08.814Z,57.89
2022-08-21T22:34:42.379Z,57.86
2022-08-21T22:37:15.027Z,57.92
2022-08-21T22:39:56.593Z,57.99
2022-08-21T22:42:29.233Z,58.06
2022-08-21T22:45:12.293Z,58.19
2022-08-21T22:47:48.967Z,58.49
2022-08-21T22:50:29.340Z,58.62
2022-08-21T22:53:03.836Z,58.55
2022-08-21T22:55:43.820Z,58.74
2022-08-21T22:58:25.015Z,58.72
2022-08-21T23:01:00.607Z,59.02
2022-08-21T23:03:45.006Z,58.98
2022-08-21T23:06:34.227Z,59.13
2022-08-21T23:09:19.510Z,58.80
2022-08-21T23:11:55.584Z,59.12
2022-08-21T23:14:30.315Z,58.86
2022-08-21T23:17:06.036Z,58.98
2022-08-21T23:19:55.319Z,59.10
2022-08-21T23:22:45.730Z,58.77
2022-08-21T23:25:39.849Z,58.94
2022-08-21T23:28:24.499Z,59.02
2022-08-21T23:31:11.846Z,58.99
2022-08-21T23:34:11.664Z,59.01
2022-08-21T23:37:18.592Z,59.29
2022-08-21T23:40:14.304Z,59.12
2022-08-21T23:43:04.427Z,59.09
2022-08-21T23:45:49.122Z,59.11
2022-08-21T23:48:32.775Z,59.20
2022-08-21T23:51:12.003Z,58.97
2022-08-21T23:53:58.640Z,59.20
2022-08-21T23:56:48.701Z,59.02
2022-08-21T23:59:32.040Z,59.27
